sensor_id;sensor_type;location;lat;lon;timestamp;temperature;humidity
6822;DHT22;3449;48.728;8.968;2024-03-06T00:00:01;4.00;99.90
6822;DHT22;3449;48.728;8.968;2024-03-06T00:02:29;4.00;99.90
6822;DHT22;3449;48.728;8.968;2024-03-06T00:04:56;4.00;99.90
6822;DHT22;3449;48.728;8.968;2024-03-06T00:07:24;4.00;99.90
6822;DHT22;3449;48.728;8.968;2024-03-06T00:09:51;4.00;99.90
6822;DHT22;3449;48.728;8.968;2024-03-06T00:12:18;4.00;99.90
6822;DHT22;3449;48.728;8.968;2024-03-06T00:14:45;4.00;99.90
6822;DHT22;3449;48.728;8.968;2024-03-06T00:17:12;4.00;99.90
6822;DHT22;3449;48.728;8.968;2024-03-06T00:19:39;4.00;99.90
6822;DHT22;3449;48.728;8.968;2024-03-06T00:22:06;4.10;99.90
6822;DHT22;3449;48.728;8.968;2024-03-06T00:24:35;4.00;99.90
6822;DHT22;3449;48.728;8.968;2024-03-06T00:27:02;4.00;99.90
6822;DHT22;3449;48.728;8.968;2024-03-06T00:29:30;4.00;99.90
6822;DHT22;3449;48.728;8.968;2024-03-06T00:31:57;4.00;99.90
6822;DHT22;3449;48.728;8.968;2024-03-06T00:34:24;4.00;99.90
6822;DHT22;3449;48.728;8.968;2024-03-06T00:36:52;4.00;99.90
6822;DHT22;3449;48.728;8.968;2024-03-06T00:39:20;4.00;99.90
6822;DHT22;3449;48.728;8.968;2024-03-06T00:41:48;3.90;99.90
6822;DHT22;3449;48.728;8.968;2024-03-06T00:44:15;4.00;99.90
6822;DHT22;3449;48.728;8.968;2024-03-06T00:46:42;4.00;99.90
6822;DHT22;3449;48.728;8.968;2024-03-06T00:49:09;4.00;99.90
6822;DHT22;3449;48.728;8.968;2024-03-06T00:51:36;4.00;99.90
6822;DHT22;3449;48.728;8.968;2024-03-06T00:54:03;4.00;99.90
6822;DHT22;3449;48.728;8.968;2024-03-06T00:56:30;4.00;99.90
6822;DHT22;3449;48.728;8.968;2024-03-06T00:58:58;4.00;99.90
6822;DHT22;3449;48.728;8.968;2024-03-06T01:01:25;4.00;99.90
6822;DHT22;3449;48.728;8.968;2024-03-06T01:03:53;3.90;99.90
6822;DHT22;3449;48.728;8.968;2024-03-06T01:06:20;3.90;99.90
6822;DHT22;3449;48.728;8.968;2024-03-06T01:08:47;3.90;99.90
6822;DHT22;3449;48.728;8.968;2024-03-06T01:11:14;3.80;99.90
6822;DHT22;3449;48.728;8.968;2024-03-06T01:13:41;3.90;99.90
6822;DHT22;3449;48.728;8.968;2024-03-06T01:16:09;3.90;99.90
6822;DHT22;3449;48.728;8.968;2024-03-06T01:18:36;3.90;99.90
6822;DHT22;3449;48.728;8.968;2024-03-06T01:21:03;3.80;99.90
6822;DHT22;3449;48.728;8.968;2024-03-06T01:23:30;3.80;99.90
6822;DHT22;3449;48.728;8.968;2024-03-06T01:25:57;3.80;99.90
6822;DHT22;3449;48.728;8.968;2024-03-06T01:28:23;3.80;99.90
6822;DHT22;3449;48.728;8.968;2024-03-06T01:30:50;3.80;99.90
6822;DHT22;3449;48.728;8.968;2024-03-06T01:33:18;3.80;99.90
6822;DHT22;3449;48.728;8.968;2024-03-06T01:35:45;3.80;99.90
6822;DHT22;3449;48.728;8.968;2024-03-06T01:38:12;3.80;99.90
6822;DHT22;3449;48.728;8.968;2024-03-06T01:40:43;3.80;99.90
6822;DHT22;3449;48.728;8.968;2024-03-06T01:43:20;3.80;99.90
6822;DHT22;3449;48.728;8.968;2024-03-06T01:45:48;3.80;99.90
6822;DHT22;3449;48.728;8.968;2024-03-06T01:48:16;3.80;99.90
6822;DHT22;3449;48.728;8.968;2024-03-06T01:50:44;3.80;99.90
6822;DHT22;3449;48.728;8.968;2024-03-06T01:53:12;3.80;99.90
6822;DHT22;3449;48.728;8.968;2024-03-06T01:55:39;3.80;99.90
6822;DHT22;3449;48.728;8.968;2024-03-06T01:58:06;3.90;99.90
6822;DHT22;3449;48.728;8.968;2024-03-06T02:00:35;3.70;99.90
6822;DHT22;3449;48.728;8.968;2024-03-06T02:03:02;3.80;99.90
6822;DHT22;3449;48.728;8.968;2024-03-06T02:05:30;3.80;99.90
6822;DHT22;3449;48.728;8.968;2024-03-06T02:07:59;3.80;99.90
6822;DHT22;3449;48.728;8.968;2024-03-06T02:10:27;3.80;99.90
6822;DHT22;3449;48.728;8.968;2024-03-06T02:12:54;3.80;99.90
6822;DHT22;3449;48.728;8.968;2024-03-06T02:15:22;3.80;99.90
6822;DHT22;3449;48.728;8.968;2024-03-06T02:17:49;3.80;99.90
6822;DHT22;3449;48.728;8.968;2024-03-06T02:20:16;3.80;99.90
6822;DHT22;3449;48.728;8.968;2024-03-06T02:22:44;3.80;99.90
6822;DHT22;3449;48.728;8.968;2024-03-06T02:25:12;3.80;99.90
6822;DHT22;3449;48.728;8.968;2024-03-06T02:27:40;3.80;99.90
6822;DHT22;3449;48.728;8.968;2024-03-06T02:30:08;3.80;99.90
6822;DHT22;3449;48.728;8.968;2024-03-06T02:32:34;3.80;99.90
6822;DHT22;3449;48.728;8.968;2024-03-06T02:35:01;3.80;99.90
6822;DHT22;3449;48.728;8.968;2024-03-06T02:37:29;3.80;99.90
6822;DHT22;3449;48.728;8.968;2024-03-06T02:39:57;3.90;99.90
6822;DHT22;3449;48.728;8.968;2024-03-06T02:42:26;3.80;99.90
6822;DHT22;3449;48.728;8.968;2024-03-06T02:44:53;3.80;99.90
6822;DHT22;3449;48.728;8.968;2024-03-06T02:47:20;3.80;99.90
6822;DHT22;3449;48.728;8.968;2024-03-06T02:49:47;3.70;99.90
6822;DHT22;3449;48.728;8.968;2024-03-06T02:52:13;3.80;99.90
6822;DHT22;3449;48.728;8.968;2024-03-06T02:54:41;3.80;99.90
6822;DHT22;3449;48.728;8.968;2024-03-06T02:57:09;3.80;99.90
6822;DHT22;3449;48.728;8.968;2024-03-06T02:59:36;3.80;99.90
6822;DHT22;3449;48.728;8.968;2024-03-06T03:02:02;3.80;99.90
6822;DHT22;3449;48.728;8.968;2024-03-06T03:04:29;3.80;99.90
6822;DHT22;3449;48.728;8.968;2024-03-06T03:06:57;3.90;99.90
6822;DHT22;3449;48.728;8.968;2024-03-06T03:09:24;3.90;99.90
6822;DHT22;3449;48.728;8.968;2024-03-06T03:11:50;3.90;99.90
6822;DHT22;3449;48.728;8.968;2024-03-06T03:14:19;3.90;99.90
6822;DHT22;3449;48.728;8.968;2024-03-06T03:16:45;4.00;99.90
6822;DHT22;3449;48.728;8.968;2024-03-06T03:19:12;4.00;99.90
6822;DHT22;3449;48.728;8.968;2024-03-06T03:21:43;4.00;99.90
6822;DHT22;3449;48.728;8.968;2024-03-06T03:24:10;4.20;99.90
6822;DHT22;3449;48.728;8.968;2024-03-06T03:26:37;4.00;99.90
6822;DHT22;3449;48.728;8.968;2024-03-06T03:29:04;4.10;99.90
6822;DHT22;3449;48.728;8.968;2024-03-06T03:31:32;4.10;99.90
6822;DHT22;3449;48.728;8.968;2024-03-06T03:33:59;4.10;99.90
6822;DHT22;3449;48.728;8.968;2024-03-06T03:36:25;4.10;99.90
6822;DHT22;3449;48.728;8.968;2024-03-06T03:38:52;4.10;99.90
6822;DHT22;3449;48.728;8.968;2024-03-06T03:41:19;4.10;99.90
6822;DHT22;3449;48.728;8.968;2024-03-06T03:43:46;4.10;99.90
6822;DHT22;3449;48.728;8.968;2024-03-06T03:46:13;4.10;99.90
6822;DHT22;3449;48.728;8.968;2024-03-06T03:48:41;4.10;99.90
6822;DHT22;3449;48.728;8.968;2024-03-06T03:51:08;4.10;99.90
6822;DHT22;3449;48.728;8.968;2024-03-06T03:53:35;4.10;99.90
6822;DHT22;3449;48.728;8.968;2024-03-06T03:56:03;4.10;99.90
6822;DHT22;3449;48.728;8.968;2024-03-06T03:58:29;4.10;99.90
6822;DHT22;3449;48.728;8.968;2024-03-06T04:00:56;4.10;99.90
6822;DHT22;3449;48.728;8.968;2024-03-06T04:03:23;4.10;99.90
6822;DHT22;3449;48.728;8.968;2024-03-06T04:05:51;4.10;99.90
6822;DHT22;3449;48.728;8.968;2024-03-06T04:08:18;4.10;99.90
6822;DHT22;3449;48.728;8.968;2024-03-06T04:10:45;4.10;99.90
6822;DHT22;3449;48.728;8.968;2024-03-06T04:13:12;4.10;99.90
6822;DHT22;3449;48.728;8.968;2024-03-06T04:15:39;4.20;99.90
6822;DHT22;3449;48.728;8.968;2024-03-06T04:18:06;4.20;99.90
6822;DHT22;3449;48.728;8.968;2024-03-06T04:20:33;4.20;99.90
6822;DHT22;3449;48.728;8.968;2024-03-06T04:23:01;4.20;99.90
6822;DHT22;3449;48.728;8.968;2024-03-06T04:25:28;4.30;99.90
6822;DHT22;3449;48.728;8.968;2024-03-06T04:27:55;4.20;99.90
6822;DHT22;3449;48.728;8.968;2024-03-06T04:30:22;4.30;99.90
6822;DHT22;3449;48.728;8.968;2024-03-06T04:32:49;4.30;99.90
6822;DHT22;3449;48.728;8.968;2024-03-06T04:35:15;4.20;99.90
6822;DHT22;3449;48.728;8.968;2024-03-06T04:37:42;4.30;99.90
6822;DHT22;3449;48.728;8.968;2024-03-06T04:40:11;4.30;99.90
6822;DHT22;3449;48.728;8.968;2024-03-06T04:42:40;4.20;99.90
6822;DHT22;3449;48.728;8.968;2024-03-06T04:45:10;4.30;99.90
6822;DHT22;3449;48.728;8.968;2024-03-06T04:47:38;4.30;99.90
6822;DHT22;3449;48.728;8.968;2024-03-06T04:50:08;4.20;99.90
6822;DHT22;3449;48.728;8.968;2024-03-06T04:52:35;4.20;99.90
6822;DHT22;3449;48.728;8.968;2024-03-06T04:55:03;4.20;99.90
6822;DHT22;3449;48.728;8.968;2024-03-06T04:57:31;4.20;99.90
6822;DHT22;3449;48.728;8.968;2024-03-06T04:59:58;4.20;99.90
6822;DHT22;3449;48.728;8.968;2024-03-06T05:02:24;4.20;99.90
6822;DHT22;3449;48.728;8.968;2024-03-06T05:04:51;4.20;99.90
6822;DHT22;3449;48.728;8.968;2024-03-06T05:07:18;4.20;99.90
6822;DHT22;3449;48.728;8.968;2024-03-06T05:09:45;4.20;99.90
6822;DHT22;3449;48.728;8.968;2024-03-06T05:12:12;4.20;99.90
6822;DHT22;3449;48.728;8.968;2024-03-06T05:14:40;4.20;99.90
6822;DHT22;3449;48.728;8.968;2024-03-06T05:17:07;4.30;99.90
6822;DHT22;3449;48.728;8.968;2024-03-06T05:19:36;4.30;99.90
6822;DHT22;3449;48.728;8.968;2024-03-06T05:22:03;4.30;99.90
6822;DHT22;3449;48.728;8.968;2024-03-06T05:24:31;4.30;99.90
6822;DHT22;3449;48.728;8.968;2024-03-06T05:26:58;4.30;99.90
6822;DHT22;3449;48.728;8.968;2024-03-06T05:29:24;4.30;99.90
6822;DHT22;3449;48.728;8.968;2024-03-06T05:31:53;4.30;99.90
6822;DHT22;3449;48.728;8.968;2024-03-06T05:34:21;4.30;99.90
6822;DHT22;3449;48.728;8.968;2024-03-06T05:36:48;4.30;99.90
6822;DHT22;3449;48.728;8.968;2024-03-06T05:39:15;4.30;99.90
6822;DHT22;3449;48.728;8.968;2024-03-06T05:41:43;4.30;99.90
6822;DHT22;3449;48.728;8.968;2024-03-06T05:44:10;4.30;99.90
6822;DHT22;3449;48.728;8.968;2024-03-06T05:46:37;4.30;99.90
6822;DHT22;3449;48.728;8.968;2024-03-06T05:49:06;4.30;99.90
6822;DHT22;3449;48.728;8.968;2024-03-06T05:51:33;4.30;99.90
6822;DHT22;3449;48.728;8.968;2024-03-06T05:53:59;4.30;99.90
6822;DHT22;3449;48.728;8.968;2024-03-06T05:56:26;4.30;99.90
6822;DHT22;3449;48.728;8.968;2024-03-06T05:58:53;4.30;99.90
6822;DHT22;3449;48.728;8.968;2024-03-06T06:01:20;4.30;99.90
6822;DHT22;3449;48.728;8.968;2024-03-06T06:03:47;4.30;99.90
6822;DHT22;3449;48.728;8.968;2024-03-06T06:06:16;4.30;99.90
6822;DHT22;3449;48.728;8.968;2024-03-06T06:08:44;4.30;99.90
6822;DHT22;3449;48.728;8.968;2024-03-06T06:11:11;4.30;99.90
6822;DHT22;3449;48.728;8.968;2024-03-06T06:13:38;4.30;99.90
6822;DHT22;3449;48.728;8.968;2024-03-06T06:16:06;4.30;99.90
6822;DHT22;3449;48.728;8.968;2024-03-06T06:18:33;4.30;99.90
6822;DHT22;3449;48.728;8.968;2024-03-06T06:20:59;4.30;99.90
6822;DHT22;3449;48.728;8.968;2024-03-06T06:23:28;4.30;99.90
6822;DHT22;3449;48.728;8.968;2024-03-06T06:25:54;4.40;99.90
6822;DHT22;3449;48.728;8.968;2024-03-06T06:28:21;4.40;99.90
6822;DHT22;3449;48.728;8.968;2024-03-06T06:30:49;4.40;99.90
6822;DHT22;3449;48.728;8.968;2024-03-06T06:33:18;4.40;99.90
6822;DHT22;3449;48.728;8.968;2024-03-06T06:35:44;4.40;99.90
6822;DHT22;3449;48.728;8.968;2024-03-06T06:38:11;4.40;99.90
6822;DHT22;3449;48.728;8.968;2024-03-06T06:40:39;4.40;99.90
6822;DHT22;3449;48.728;8.968;2024-03-06T06:43:07;4.40;99.90
6822;DHT22;3449;48.728;8.968;2024-03-06T06:45:34;4.40;99.90
6822;DHT22;3449;48.728;8.968;2024-03-06T06:48:00;4.40;99.90
6822;DHT22;3449;48.728;8.968;2024-03-06T06:50:28;4.40;99.90
6822;DHT22;3449;48.728;8.968;2024-03-06T06:52:55;4.40;99.90
6822;DHT22;3449;48.728;8.968;2024-03-06T06:55:24;4.40;99.90
6822;DHT22;3449;48.728;8.968;2024-03-06T06:57:53;4.40;99.90
6822;DHT22;3449;48.728;8.968;2024-03-06T07:00:21;4.50;99.90
6822;DHT22;3449;48.728;8.968;2024-03-06T07:02:48;4.50;99.90
6822;DHT22;3449;48.728;8.968;2024-03-06T07:05:16;4.50;99.90
6822;DHT22;3449;48.728;8.968;2024-03-06T07:07:43;4.50;99.90
6822;DHT22;3449;48.728;8.968;2024-03-06T07:10:10;4.60;99.90
6822;DHT22;3449;48.728;8.968;2024-03-06T07:12:37;4.50;99.90
6822;DHT22;3449;48.728;8.968;2024-03-06T07:15:06;4.60;99.90
6822;DHT22;3449;48.728;8.968;2024-03-06T07:17:33;4.60;99.90
6822;DHT22;3449;48.728;8.968;2024-03-06T07:20:00;4.60;99.90
6822;DHT22;3449;48.728;8.968;2024-03-06T07:22:30;4.60;99.90
6822;DHT22;3449;48.728;8.968;2024-03-06T07:24:59;4.70;99.90
6822;DHT22;3449;48.728;8.968;2024-03-06T07:27:26;4.60;99.90
6822;DHT22;3449;48.728;8.968;2024-03-06T07:29:53;4.70;99.90
6822;DHT22;3449;48.728;8.968;2024-03-06T07:32:21;4.70;99.90
6822;DHT22;3449;48.728;8.968;2024-03-06T07:34:48;4.70;99.90
6822;DHT22;3449;48.728;8.968;2024-03-06T07:37:15;4.70;99.90
6822;DHT22;3449;48.728;8.968;2024-03-06T07:39:42;4.80;99.90
6822;DHT22;3449;48.728;8.968;2024-03-06T07:42:09;4.70;99.90
6822;DHT22;3449;48.728;8.968;2024-03-06T07:44:36;4.70;99.90
6822;DHT22;3449;48.728;8.968;2024-03-06T07:47:03;4.70;99.90
6822;DHT22;3449;48.728;8.968;2024-03-06T07:49:31;4.70;99.90
6822;DHT22;3449;48.728;8.968;2024-03-06T07:51:58;4.60;99.90
6822;DHT22;3449;48.728;8.968;2024-03-06T07:54:25;4.70;99.90
6822;DHT22;3449;48.728;8.968;2024-03-06T07:56:52;4.70;99.90
6822;DHT22;3449;48.728;8.968;2024-03-06T07:59:19;4.70;99.90
6822;DHT22;3449;48.728;8.968;2024-03-06T08:01:46;4.70;99.90
6822;DHT22;3449;48.728;8.968;2024-03-06T08:04:13;4.70;99.90
6822;DHT22;3449;48.728;8.968;2024-03-06T08:06:42;4.70;99.90
6822;DHT22;3449;48.728;8.968;2024-03-06T08:09:08;4.70;99.90
6822;DHT22;3449;48.728;8.968;2024-03-06T08:11:36;4.70;99.90
6822;DHT22;3449;48.728;8.968;2024-03-06T08:14:03;4.70;99.90
6822;DHT22;3449;48.728;8.968;2024-03-06T08:16:30;4.70;99.90
6822;DHT22;3449;48.728;8.968;2024-03-06T08:18:57;4.70;99.90
6822;DHT22;3449;48.728;8.968;2024-03-06T08:21:25;4.70;99.90
6822;DHT22;3449;48.728;8.968;2024-03-06T08:23:53;4.70;99.90
6822;DHT22;3449;48.728;8.968;2024-03-06T08:26:20;4.80;99.90
6822;DHT22;3449;48.728;8.968;2024-03-06T08:28:47;4.80;99.90
6822;DHT22;3449;48.728;8.968;2024-03-06T08:31:14;4.90;99.90
6822;DHT22;3449;48.728;8.968;2024-03-06T08:33:41;4.90;99.90
6822;DHT22;3449;48.728;8.968;2024-03-06T08:36:10;4.90;99.90
6822;DHT22;3449;48.728;8.968;2024-03-06T08:38:36;5.00;99.90
6822;DHT22;3449;48.728;8.968;2024-03-06T08:41:05;5.10;99.90
6822;DHT22;3449;48.728;8.968;2024-03-06T08:43:32;5.10;99.90
6822;DHT22;3449;48.728;8.968;2024-03-06T08:45:58;5.20;99.90
6822;DHT22;3449;48.728;8.968;2024-03-06T08:48:25;5.10;99.90
6822;DHT22;3449;48.728;8.968;2024-03-06T08:50:52;5.10;99.90
6822;DHT22;3449;48.728;8.968;2024-03-06T08:53:20;5.20;99.90
6822;DHT22;3449;48.728;8.968;2024-03-06T08:55:46;5.20;99.90
6822;DHT22;3449;48.728;8.968;2024-03-06T08:58:15;5.20;99.90
6822;DHT22;3449;48.728;8.968;2024-03-06T09:00:41;5.20;99.90
6822;DHT22;3449;48.728;8.968;2024-03-06T09:03:08;5.20;99.90
6822;DHT22;3449;48.728;8.968;2024-03-06T09:05:35;5.20;99.90
6822;DHT22;3449;48.728;8.968;2024-03-06T09:08:02;5.20;99.90
6822;DHT22;3449;48.728;8.968;2024-03-06T09:10:29;5.20;99.90
6822;DHT22;3449;48.728;8.968;2024-03-06T09:12:56;5.20;99.90
6822;DHT22;3449;48.728;8.968;2024-03-06T09:15:24;5.20;99.90
6822;DHT22;3449;48.728;8.968;2024-03-06T09:17:51;5.20;99.90
6822;DHT22;3449;48.728;8.968;2024-03-06T09:20:18;5.20;99.90
6822;DHT22;3449;48.728;8.968;2024-03-06T09:22:45;5.20;99.90
6822;DHT22;3449;48.728;8.968;2024-03-06T09:25:12;5.20;99.90
6822;DHT22;3449;48.728;8.968;2024-03-06T09:27:40;5.20;99.90
6822;DHT22;3449;48.728;8.968;2024-03-06T09:30:08;5.20;99.90
6822;DHT22;3449;48.728;8.968;2024-03-06T09:32:37;5.20;99.90
6822;DHT22;3449;48.728;8.968;2024-03-06T09:35:05;5.20;99.90
6822;DHT22;3449;48.728;8.968;2024-03-06T09:37:32;5.20;99.90
6822;DHT22;3449;48.728;8.968;2024-03-06T09:39:59;5.20;99.90
6822;DHT22;3449;48.728;8.968;2024-03-06T09:42:26;5.20;99.90
6822;DHT22;3449;48.728;8.968;2024-03-06T09:44:53;5.20;99.90
6822;DHT22;3449;48.728;8.968;2024-03-06T09:47:22;5.30;99.90
6822;DHT22;3449;48.728;8.968;2024-03-06T09:49:52;5.30;99.90
6822;DHT22;3449;48.728;8.968;2024-03-06T09:52:20;5.30;99.90
6822;DHT22;3449;48.728;8.968;2024-03-06T09:54:48;5.30;99.90
6822;DHT22;3449;48.728;8.968;2024-03-06T09:57:16;5.30;99.90
6822;DHT22;3449;48.728;8.968;2024-03-06T09:59:42;5.50;99.90
6822;DHT22;3449;48.728;8.968;2024-03-06T10:02:22;5.40;99.90
6822;DHT22;3449;48.728;8.968;2024-03-06T10:04:56;5.30;99.90
6822;DHT22;3449;48.728;8.968;2024-03-06T10:07:23;5.40;99.90
6822;DHT22;3449;48.728;8.968;2024-03-06T10:09:52;5.40;99.90
6822;DHT22;3449;48.728;8.968;2024-03-06T10:12:19;5.50;99.90
6822;DHT22;3449;48.728;8.968;2024-03-06T10:14:50;5.50;99.90
6822;DHT22;3449;48.728;8.968;2024-03-06T10:17:21;5.60;99.90
6822;DHT22;3449;48.728;8.968;2024-03-06T10:19:53;5.60;99.90
6822;DHT22;3449;48.728;8.968;2024-03-06T10:22:28;5.70;99.90
6822;DHT22;3449;48.728;8.968;2024-03-06T10:24:55;5.70;99.90
6822;DHT22;3449;48.728;8.968;2024-03-06T10:27:22;5.70;99.90
6822;DHT22;3449;48.728;8.968;2024-03-06T10:30:01;5.70;99.90
6822;DHT22;3449;48.728;8.968;2024-03-06T10:32:30;5.80;99.90
6822;DHT22;3449;48.728;8.968;2024-03-06T10:34:57;5.80;99.90
6822;DHT22;3449;48.728;8.968;2024-03-06T10:37:25;5.80;99.90
6822;DHT22;3449;48.728;8.968;2024-03-06T10:39:54;5.90;99.90
6822;DHT22;3449;48.728;8.968;2024-03-06T10:42:26;5.80;99.90
6822;DHT22;3449;48.728;8.968;2024-03-06T10:44:55;5.80;99.90
6822;DHT22;3449;48.728;8.968;2024-03-06T10:47:26;5.90;99.90
6822;DHT22;3449;48.728;8.968;2024-03-06T10:49:55;5.90;99.90
6822;DHT22;3449;48.728;8.968;2024-03-06T10:52:27;5.80;99.90
6822;DHT22;3449;48.728;8.968;2024-03-06T10:54:58;5.80;99.90
6822;DHT22;3449;48.728;8.968;2024-03-06T10:57:25;5.90;99.90
6822;DHT22;3449;48.728;8.968;2024-03-06T10:59:53;5.80;99.90
6822;DHT22;3449;48.728;8.968;2024-03-06T11:02:22;5.80;99.90
6822;DHT22;3449;48.728;8.968;2024-03-06T11:04:51;5.90;99.90
6822;DHT22;3449;48.728;8.968;2024-03-06T11:07:18;5.90;99.90
6822;DHT22;3449;48.728;8.968;2024-03-06T11:09:45;5.90;99.90
6822;DHT22;3449;48.728;8.968;2024-03-06T11:12:32;5.90;99.90
6822;DHT22;3449;48.728;8.968;2024-03-06T11:14:59;6.00;99.90
6822;DHT22;3449;48.728;8.968;2024-03-06T11:17:26;6.00;99.90
6822;DHT22;3449;48.728;8.968;2024-03-06T11:20:13;6.00;99.90
6822;DHT22;3449;48.728;8.968;2024-03-06T11:23:02;6.00;99.90
6822;DHT22;3449;48.728;8.968;2024-03-06T11:26:01;6.10;99.90
6822;DHT22;3449;48.728;8.968;2024-03-06T11:28:31;6.20;99.90
6822;DHT22;3449;48.728;8.968;2024-03-06T11:30:59;6.20;99.90
6822;DHT22;3449;48.728;8.968;2024-03-06T11:33:37;6.20;99.90
6822;DHT22;3449;48.728;8.968;2024-03-06T11:36:15;6.20;99.90
6822;DHT22;3449;48.728;8.968;2024-03-06T11:38:43;6.10;99.90
6822;DHT22;3449;48.728;8.968;2024-03-06T11:41:13;6.10;99.90
6822;DHT22;3449;48.728;8.968;2024-03-06T11:43:44;6.10;99.90
6822;DHT22;3449;48.728;8.968;2024-03-06T11:46:12;6.10;99.90
6822;DHT22;3449;48.728;8.968;2024-03-06T11:48:38;6.00;99.90
6822;DHT22;3449;48.728;8.968;2024-03-06T11:51:06;6.00;99.90
6822;DHT22;3449;48.728;8.968;2024-03-06T11:53:33;6.00;99.90
6822;DHT22;3449;48.728;8.968;2024-03-06T11:56:00;5.90;99.90
6822;DHT22;3449;48.728;8.968;2024-03-06T11:58:27;5.90;99.90
6822;DHT22;3449;48.728;8.968;2024-03-06T12:00:55;5.80;99.90
6822;DHT22;3449;48.728;8.968;2024-03-06T12:03:22;5.80;99.90
6822;DHT22;3449;48.728;8.968;2024-03-06T12:05:50;5.70;99.90
6822;DHT22;3449;48.728;8.968;2024-03-06T12:08:18;5.70;99.90
6822;DHT22;3449;48.728;8.968;2024-03-06T12:10:46;5.70;99.90
6822;DHT22;3449;48.728;8.968;2024-03-06T12:13:13;5.70;99.90
6822;DHT22;3449;48.728;8.968;2024-03-06T12:15:42;5.70;99.90
6822;DHT22;3449;48.728;8.968;2024-03-06T12:18:11;5.70;99.90
6822;DHT22;3449;48.728;8.968;2024-03-06T12:20:41;5.70;99.90
6822;DHT22;3449;48.728;8.968;2024-03-06T12:23:19;5.70;99.90
6822;DHT22;3449;48.728;8.968;2024-03-06T12:25:47;5.70;99.90
6822;DHT22;3449;48.728;8.968;2024-03-06T12:28:14;5.70;99.90
6822;DHT22;3449;48.728;8.968;2024-03-06T12:30:43;5.70;99.90
6822;DHT22;3449;48.728;8.968;2024-03-06T12:33:16;5.70;99.90
6822;DHT22;3449;48.728;8.968;2024-03-06T12:35:43;5.70;99.90
6822;DHT22;3449;48.728;8.968;2024-03-06T12:38:14;5.70;99.90
6822;DHT22;3449;48.728;8.968;2024-03-06T12:40:41;5.70;99.90
6822;DHT22;3449;48.728;8.968;2024-03-06T12:43:09;5.70;99.90
6822;DHT22;3449;48.728;8.968;2024-03-06T12:45:36;5.70;99.90
6822;DHT22;3449;48.728;8.968;2024-03-06T12:48:04;5.70;99.90
6822;DHT22;3449;48.728;8.968;2024-03-06T12:50:34;5.60;99.90
6822;DHT22;3449;48.728;8.968;2024-03-06T12:53:00;5.60;99.90
6822;DHT22;3449;48.728;8.968;2024-03-06T12:55:30;5.60;99.90
6822;DHT22;3449;48.728;8.968;2024-03-06T12:57:58;5.60;99.90
6822;DHT22;3449;48.728;8.968;2024-03-06T13:00:24;5.60;99.90
6822;DHT22;3449;48.728;8.968;2024-03-06T13:02:51;5.70;99.90
6822;DHT22;3449;48.728;8.968;2024-03-06T13:05:18;5.70;99.90
6822;DHT22;3449;48.728;8.968;2024-03-06T13:07:46;5.70;99.90
6822;DHT22;3449;48.728;8.968;2024-03-06T13:10:13;5.80;99.90
6822;DHT22;3449;48.728;8.968;2024-03-06T13:12:40;5.80;99.90
6822;DHT22;3449;48.728;8.968;2024-03-06T13:15:08;5.80;99.90
6822;DHT22;3449;48.728;8.968;2024-03-06T13:17:35;5.80;99.90
6822;DHT22;3449;48.728;8.968;2024-03-06T13:20:02;5.80;99.90
6822;DHT22;3449;48.728;8.968;2024-03-06T13:22:29;5.90;99.90
6822;DHT22;3449;48.728;8.968;2024-03-06T13:24:58;5.90;99.90
6822;DHT22;3449;48.728;8.968;2024-03-06T13:27:25;5.90;99.90
6822;DHT22;3449;48.728;8.968;2024-03-06T13:29:52;5.90;99.90
6822;DHT22;3449;48.728;8.968;2024-03-06T13:32:19;6.00;99.90
6822;DHT22;3449;48.728;8.968;2024-03-06T13:34:46;6.10;99.90
6822;DHT22;3449;48.728;8.968;2024-03-06T13:37:13;6.10;99.90
6822;DHT22;3449;48.728;8.968;2024-03-06T13:39:40;6.20;99.90
6822;DHT22;3449;48.728;8.968;2024-03-06T13:42:08;6.30;99.90
6822;DHT22;3449;48.728;8.968;2024-03-06T13:44:36;6.30;99.90
6822;DHT22;3449;48.728;8.968;2024-03-06T13:47:03;6.30;99.90
6822;DHT22;3449;48.728;8.968;2024-03-06T13:49:38;6.30;99.90
6822;DHT22;3449;48.728;8.968;2024-03-06T13:52:06;6.30;99.90
6822;DHT22;3449;48.728;8.968;2024-03-06T13:54:35;6.30;99.90
6822;DHT22;3449;48.728;8.968;2024-03-06T13:57:04;6.40;99.90
6822;DHT22;3449;48.728;8.968;2024-03-06T13:59:33;6.30;99.90
6822;DHT22;3449;48.728;8.968;2024-03-06T14:02:00;6.30;99.90
6822;DHT22;3449;48.728;8.968;2024-03-06T14:04:28;6.30;99.90
6822;DHT22;3449;48.728;8.968;2024-03-06T14:06:56;6.30;99.90
6822;DHT22;3449;48.728;8.968;2024-03-06T14:09:24;6.30;99.90
6822;DHT22;3449;48.728;8.968;2024-03-06T14:11:51;6.30;99.90
6822;DHT22;3449;48.728;8.968;2024-03-06T14:14:18;6.30;99.90
6822;DHT22;3449;48.728;8.968;2024-03-06T14:16:46;6.30;99.90
6822;DHT22;3449;48.728;8.968;2024-03-06T14:19:13;6.20;99.90
6822;DHT22;3449;48.728;8.968;2024-03-06T14:21:40;6.20;99.90
6822;DHT22;3449;48.728;8.968;2024-03-06T14:24:07;6.20;99.90
6822;DHT22;3449;48.728;8.968;2024-03-06T14:26:35;6.20;99.90
6822;DHT22;3449;48.728;8.968;2024-03-06T14:29:02;6.10;99.90
6822;DHT22;3449;48.728;8.968;2024-03-06T14:31:31;6.10;99.90
6822;DHT22;3449;48.728;8.968;2024-03-06T14:33:59;6.20;99.90
6822;DHT22;3449;48.728;8.968;2024-03-06T14:36:26;6.20;99.90
6822;DHT22;3449;48.728;8.968;2024-03-06T14:38:53;6.10;99.90
6822;DHT22;3449;48.728;8.968;2024-03-06T14:41:20;6.10;99.90
6822;DHT22;3449;48.728;8.968;2024-03-06T14:43:47;6.10;99.90
6822;DHT22;3449;48.728;8.968;2024-03-06T14:46:14;6.00;99.90
6822;DHT22;3449;48.728;8.968;2024-03-06T14:48:41;6.00;99.90
6822;DHT22;3449;48.728;8.968;2024-03-06T14:51:09;6.00;99.90
6822;DHT22;3449;48.728;8.968;2024-03-06T14:53:36;6.00;99.90
6822;DHT22;3449;48.728;8.968;2024-03-06T14:56:04;6.00;99.90
6822;DHT22;3449;48.728;8.968;2024-03-06T14:58:31;6.00;99.90
6822;DHT22;3449;48.728;8.968;2024-03-06T15:00:58;6.00;99.90
6822;DHT22;3449;48.728;8.968;2024-03-06T15:03:25;6.00;99.90
6822;DHT22;3449;48.728;8.968;2024-03-06T15:05:52;6.00;99.90
6822;DHT22;3449;48.728;8.968;2024-03-06T15:08:20;6.00;99.90
6822;DHT22;3449;48.728;8.968;2024-03-06T15:10:47;5.90;99.90
6822;DHT22;3449;48.728;8.968;2024-03-06T15:13:14;6.00;99.90
6822;DHT22;3449;48.728;8.968;2024-03-06T15:15:42;5.90;99.90
6822;DHT22;3449;48.728;8.968;2024-03-06T15:18:09;5.90;99.90
6822;DHT22;3449;48.728;8.968;2024-03-06T15:20:36;5.90;99.90
6822;DHT22;3449;48.728;8.968;2024-03-06T15:23:03;5.90;99.90
6822;DHT22;3449;48.728;8.968;2024-03-06T15:25:32;5.90;99.90
6822;DHT22;3449;48.728;8.968;2024-03-06T15:27:58;5.90;99.90
6822;DHT22;3449;48.728;8.968;2024-03-06T15:30:25;5.90;99.90
6822;DHT22;3449;48.728;8.968;2024-03-06T15:32:54;5.90;99.90
6822;DHT22;3449;48.728;8.968;2024-03-06T15:35:21;5.90;99.90
6822;DHT22;3449;48.728;8.968;2024-03-06T15:37:49;5.90;99.90
6822;DHT22;3449;48.728;8.968;2024-03-06T15:40:16;5.90;99.90
6822;DHT22;3449;48.728;8.968;2024-03-06T15:42:44;5.90;99.90
6822;DHT22;3449;48.728;8.968;2024-03-06T15:45:12;5.90;99.90
6822;DHT22;3449;48.728;8.968;2024-03-06T15:47:39;5.90;99.90
6822;DHT22;3449;48.728;8.968;2024-03-06T15:50:09;5.80;99.90
6822;DHT22;3449;48.728;8.968;2024-03-06T15:52:36;5.80;99.90
6822;DHT22;3449;48.728;8.968;2024-03-06T15:55:04;5.80;99.90
6822;DHT22;3449;48.728;8.968;2024-03-06T15:57:31;5.80;99.90
6822;DHT22;3449;48.728;8.968;2024-03-06T15:59:59;5.80;99.90
6822;DHT22;3449;48.728;8.968;2024-03-06T16:02:26;5.80;99.90
6822;DHT22;3449;48.728;8.968;2024-03-06T16:04:53;5.80;99.90
6822;DHT22;3449;48.728;8.968;2024-03-06T16:07:20;5.80;99.90
6822;DHT22;3449;48.728;8.968;2024-03-06T16:09:47;5.80;99.90
6822;DHT22;3449;48.728;8.968;2024-03-06T16:12:16;5.80;99.90
6822;DHT22;3449;48.728;8.968;2024-03-06T16:14:43;5.80;99.90
6822;DHT22;3449;48.728;8.968;2024-03-06T16:17:11;5.80;99.90
6822;DHT22;3449;48.728;8.968;2024-03-06T16:19:39;5.80;99.90